sensor_id;sensor_type;location;lat;lon;timestamp;P1;durP1;ratioP1;P2;durP2;ratioP2
20458;SDS011;10388;52.314;7.938;2023-03-26T00:01:22;3.77;;;1.73;;
20458;SDS011;10388;52.314;7.938;2023-03-26T00:03:54;3.63;;;2.00;;
20458;SDS011;10388;52.314;7.938;2023-03-26T00:06:30;4.30;;;2.30;;
20458;SDS011;10388;52.314;7.938;2023-03-26T00:09:08;4.73;;;2.33;;
20458;SDS011;10388;52.314;7.938;2023-03-26T00:11:42;5.73;;;2.73;;
20458;SDS011;10388;52.314;7.938;2023-03-26T00:14:13;5.73;;;2.60;;
20458;SDS011;10388;52.314;7.938;2023-03-26T00:16:46;4.77;;;2.93;;
20458;SDS011;10388;52.314;7.938;2023-03-26T00:19:18;6.70;;;3.50;;
20458;SDS011;10388;52.314;7.938;2023-03-26T00:21:48;9.47;;;3.80;;
20458;SDS011;10388;52.314;7.938;2023-03-26T00:24:21;5.60;;;2.83;;
20458;SDS011;10388;52.314;7.938;2023-03-26T00:26:58;8.00;;;3.53;;
20458;SDS011;10388;52.314;7.938;2023-03-26T00:29:29;5.17;;;2.80;;
20458;SDS011;10388;52.314;7.938;2023-03-26T00:32:02;4.13;;;2.60;;
20458;SDS011;10388;52.314;7.938;2023-03-26T00:34:32;4.67;;;2.70;;
20458;SDS011;10388;52.314;7.938;2023-03-26T00:37:03;7.17;;;2.70;;
20458;SDS011;10388;52.314;7.938;2023-03-26T00:39:34;5.27;;;2.37;;
20458;SDS011;10388;52.314;7.938;2023-03-26T00:42:06;3.37;;;2.00;;
20458;SDS011;10388;52.314;7.938;2023-03-26T00:44:37;6.73;;;2.80;;
20458;SDS011;10388;52.314;7.938;2023-03-26T00:47:07;4.33;;;2.40;;
20458;SDS011;10388;52.314;7.938;2023-03-26T00:49:38;8.27;;;2.97;;
20458;SDS011;10388;52.314;7.938;2023-03-26T00:52:08;4.63;;;2.33;;
20458;SDS011;10388;52.314;7.938;2023-03-26T00:54:39;5.87;;;2.10;;
20458;SDS011;10388;52.314;7.938;2023-03-26T00:57:09;5.60;;;2.00;;
20458;SDS011;10388;52.314;7.938;2023-03-26T00:59:42;4.90;;;2.17;;
20458;SDS011;10388;52.314;7.938;2023-03-26T01:02:13;5.47;;;1.90;;
20458;SDS011;10388;52.314;7.938;2023-03-26T01:04:49;3.70;;;2.30;;
20458;SDS011;10388;52.314;7.938;2023-03-26T01:07:24;5.73;;;2.47;;
20458;SDS011;10388;52.314;7.938;2023-03-26T01:09:58;7.87;;;2.80;;
20458;SDS011;10388;52.314;7.938;2023-03-26T01:12:29;4.70;;;2.47;;
20458;SDS011;10388;52.314;7.938;2023-03-26T01:27:43;4.97;;;3.40;;
20458;SDS011;10388;52.314;7.938;2023-03-26T01:30:59;5.37;;;3.00;;
20458;SDS011;10388;52.314;7.938;2023-03-26T01:49:49;6.03;;;4.00;;
20458;SDS011;10388;52.314;7.938;2023-03-26T02:10:27;9.50;;;4.80;;
20458;SDS011;10388;52.314;7.938;2023-03-26T02:13:12;9.43;;;4.50;;
20458;SDS011;10388;52.314;7.938;2023-03-26T02:24:34;12.57;;;3.97;;
20458;SDS011;10388;52.314;7.938;2023-03-26T02:27:08;8.03;;;4.30;;
20458;SDS011;10388;52.314;7.938;2023-03-26T02:30:07;7.63;;;3.20;;
20458;SDS011;10388;52.314;7.938;2023-03-26T02:36:57;11.50;;;4.13;;
20458;SDS011;10388;52.314;7.938;2023-03-26T02:40:00;6.10;;;3.47;;
20458;SDS011;10388;52.314;7.938;2023-03-26T02:42:52;10.40;;;3.57;;
20458;SDS011;10388;52.314;7.938;2023-03-26T02:46:01;10.20;;;4.90;;
20458;SDS011;10388;52.314;7.938;2023-03-26T02:55:56;7.93;;;3.47;;
20458;SDS011;10388;52.314;7.938;2023-03-26T02:59:08;11.00;;;3.90;;
20458;SDS011;10388;52.314;7.938;2023-03-26T03:01:49;14.57;;;3.87;;
20458;SDS011;10388;52.314;7.938;2023-03-26T03:05:04;10.10;;;3.53;;
20458;SDS011;10388;52.314;7.938;2023-03-26T03:11:57;9.23;;;3.53;;
20458;SDS011;10388;52.314;7.938;2023-03-26T03:14:57;7.97;;;3.87;;
20458;SDS011;10388;52.314;7.938;2023-03-26T03:17:53;11.80;;;4.70;;
20458;SDS011;10388;52.314;7.938;2023-03-26T03:20:57;7.57;;;3.63;;
20458;SDS011;10388;52.314;7.938;2023-03-26T03:23:40;8.67;;;3.90;;
20458;SDS011;10388;52.314;7.938;2023-03-26T03:26:49;10.10;;;5.20;;
20458;SDS011;10388;52.314;7.938;2023-03-26T03:29:52;9.67;;;4.53;;
20458;SDS011;10388;52.314;7.938;2023-03-26T03:32:43;8.67;;;4.90;;
20458;SDS011;10388;52.314;7.938;2023-03-26T03:42:44;9.93;;;5.23;;
20458;SDS011;10388;52.314;7.938;2023-03-26T03:49:25;13.70;;;5.33;;
20458;SDS011;10388;52.314;7.938;2023-03-26T03:52:40;12.27;;;5.10;;
20458;SDS011;10388;52.314;7.938;2023-03-26T03:55:53;12.43;;;5.60;;
20458;SDS011;10388;52.314;7.938;2023-03-26T04:02:14;14.73;;;6.40;;
20458;SDS011;10388;52.314;7.938;2023-03-26T04:05:08;10.30;;;5.97;;
20458;SDS011;10388;52.314;7.938;2023-03-26T04:08:01;11.73;;;6.00;;
20458;SDS011;10388;52.314;7.938;2023-03-26T04:31:45;11.67;;;5.97;;
20458;SDS011;10388;52.314;7.938;2023-03-26T04:51:06;11.87;;;6.57;;
20458;SDS011;10388;52.314;7.938;2023-03-26T04:54:44;11.03;;;6.23;;
20458;SDS011;10388;52.314;7.938;2023-03-26T04:58:10;11.50;;;5.57;;
20458;SDS011;10388;52.314;7.938;2023-03-26T05:15:09;13.70;;;6.73;;
20458;SDS011;10388;52.314;7.938;2023-03-26T05:21:32;9.97;;;6.17;;
20458;SDS011;10388;52.314;7.938;2023-03-26T05:28:33;13.20;;;6.73;;
20458;SDS011;10388;52.314;7.938;2023-03-26T05:31:37;13.33;;;6.73;;
20458;SDS011;10388;52.314;7.938;2023-03-26T05:41:48;13.13;;;7.53;;
20458;SDS011;10388;52.314;7.938;2023-03-26T05:45:04;13.00;;;6.53;;
20458;SDS011;10388;52.314;7.938;2023-03-26T05:51:56;13.83;;;7.27;;
20458;SDS011;10388;52.314;7.938;2023-03-26T05:55:28;18.77;;;8.10;;
20458;SDS011;10388;52.314;7.938;2023-03-26T06:05:16;12.23;;;7.40;;
20458;SDS011;10388;52.314;7.938;2023-03-26T06:07:47;14.90;;;6.97;;
20458;SDS011;10388;52.314;7.938;2023-03-26T06:10:18;15.60;;;7.00;;
20458;SDS011;10388;52.314;7.938;2023-03-26T06:12:48;15.93;;;8.27;;
20458;SDS011;10388;52.314;7.938;2023-03-26T06:15:19;15.90;;;8.73;;
20458;SDS011;10388;52.314;7.938;2023-03-26T06:17:49;15.43;;;8.37;;
20458;SDS011;10388;52.314;7.938;2023-03-26T06:20:20;17.33;;;8.53;;
20458;SDS011;10388;52.314;7.938;2023-03-26T06:22:50;17.47;;;9.07;;
20458;SDS011;10388;52.314;7.938;2023-03-26T06:25:21;12.83;;;7.80;;
20458;SDS011;10388;52.314;7.938;2023-03-26T06:27:51;18.33;;;7.23;;
20458;SDS011;10388;52.314;7.938;2023-03-26T06:30:22;13.13;;;7.80;;
20458;SDS011;10388;52.314;7.938;2023-03-26T06:32:52;12.17;;;7.53;;
20458;SDS011;10388;52.314;7.938;2023-03-26T06:35:23;15.97;;;8.23;;
20458;SDS011;10388;52.314;7.938;2023-03-26T06:37:54;17.87;;;7.00;;
20458;SDS011;10388;52.314;7.938;2023-03-26T06:40:24;13.37;;;7.47;;
20458;SDS011;10388;52.314;7.938;2023-03-26T06:42:55;13.53;;;7.53;;
20458;SDS011;10388;52.314;7.938;2023-03-26T06:45:26;19.53;;;10.50;;
20458;SDS011;10388;52.314;7.938;2023-03-26T06:47:57;19.37;;;10.97;;
20458;SDS011;10388;52.314;7.938;2023-03-26T06:50:28;21.13;;;10.53;;
20458;SDS011;10388;52.314;7.938;2023-03-26T06:53:01;12.23;;;8.13;;
20458;SDS011;10388;52.314;7.938;2023-03-26T06:55:31;15.60;;;8.40;;
20458;SDS011;10388;52.314;7.938;2023-03-26T06:58:02;16.33;;;8.30;;
20458;SDS011;10388;52.314;7.938;2023-03-26T07:00:32;15.43;;;7.87;;
20458;SDS011;10388;52.314;7.938;2023-03-26T07:03:04;16.43;;;9.20;;
20458;SDS011;10388;52.314;7.938;2023-03-26T07:05:35;15.50;;;8.00;;
20458;SDS011;10388;52.314;7.938;2023-03-26T07:08:05;14.93;;;8.17;;
20458;SDS011;10388;52.314;7.938;2023-03-26T07:10:36;15.97;;;8.63;;
20458;SDS011;10388;52.314;7.938;2023-03-26T07:13:06;15.57;;;8.47;;
20458;SDS011;10388;52.314;7.938;2023-03-26T07:15:37;18.83;;;8.00;;
20458;SDS011;10388;52.314;7.938;2023-03-26T07:18:07;17.57;;;8.47;;
20458;SDS011;10388;52.314;7.938;2023-03-26T07:20:38;16.77;;;8.57;;
20458;SDS011;10388;52.314;7.938;2023-03-26T07:23:11;15.50;;;7.30;;
20458;SDS011;10388;52.314;7.938;2023-03-26T07:25:45;15.30;;;7.97;;
20458;SDS011;10388;52.314;7.938;2023-03-26T07:28:21;17.47;;;8.00;;
20458;SDS011;10388;52.314;7.938;2023-03-26T07:30:59;12.40;;;7.90;;
20458;SDS011;10388;52.314;7.938;2023-03-26T07:42:13;14.67;;;8.03;;
20458;SDS011;10388;52.314;7.938;2023-03-26T07:45:21;20.50;;;8.67;;
20458;SDS011;10388;52.314;7.938;2023-03-26T07:47:54;14.60;;;7.70;;
20458;SDS011;10388;52.314;7.938;2023-03-26T07:50:26;13.37;;;7.27;;
20458;SDS011;10388;52.314;7.938;2023-03-26T07:52:56;12.43;;;6.23;;
20458;SDS011;10388;52.314;7.938;2023-03-26T07:55:27;11.50;;;7.00;;
20458;SDS011;10388;52.314;7.938;2023-03-26T07:58:15;16.00;;;7.67;;
20458;SDS011;10388;52.314;7.938;2023-03-26T08:00:58;12.87;;;6.60;;
20458;SDS011;10388;52.314;7.938;2023-03-26T08:03:44;12.30;;;5.40;;
20458;SDS011;10388;52.314;7.938;2023-03-26T08:06:37;9.00;;;5.00;;
20458;SDS011;10388;52.314;7.938;2023-03-26T08:17:29;14.77;;;5.00;;
20458;SDS011;10388;52.314;7.938;2023-03-26T08:23:07;8.67;;;4.47;;
20458;SDS011;10388;52.314;7.938;2023-03-26T08:26:13;13.10;;;3.77;;
20458;SDS011;10388;52.314;7.938;2023-03-26T08:31:58;6.30;;;4.10;;
20458;SDS011;10388;52.314;7.938;2023-03-26T08:34:30;9.07;;;4.13;;
20458;SDS011;10388;52.314;7.938;2023-03-26T08:37:01;6.20;;;3.17;;
20458;SDS011;10388;52.314;7.938;2023-03-26T08:39:31;9.03;;;3.70;;
20458;SDS011;10388;52.314;7.938;2023-03-26T08:47:53;8.23;;;4.67;;
20458;SDS011;10388;52.314;7.938;2023-03-26T09:14:16;8.13;;;4.47;;
20458;SDS011;10388;52.314;7.938;2023-03-26T09:20:59;6.70;;;4.20;;
20458;SDS011;10388;52.314;7.938;2023-03-26T09:46:00;7.13;;;4.10;;
20458;SDS011;10388;52.314;7.938;2023-03-26T09:51:38;7.93;;;4.77;;
20458;SDS011;10388;52.314;7.938;2023-03-26T09:57:13;8.37;;;3.93;;
20458;SDS011;10388;52.314;7.938;2023-03-26T10:22:33;4.90;;;3.33;;
20458;SDS011;10388;52.314;7.938;2023-03-26T10:25:32;6.40;;;3.40;;
20458;SDS011;10388;52.314;7.938;2023-03-26T10:31:45;6.80;;;4.07;;
20458;SDS011;10388;52.314;7.938;2023-03-26T10:40:10;3.93;;;2.67;;
20458;SDS011;10388;52.314;7.938;2023-03-26T10:54:19;6.67;;;2.87;;
20458;SDS011;10388;52.314;7.938;2023-03-26T11:05:53;5.20;;;2.83;;
20458;SDS011;10388;52.314;7.938;2023-03-26T11:22:28;7.47;;;2.60;;
20458;SDS011;10388;52.314;7.938;2023-03-26T11:28:14;6.63;;;2.83;;
20458;SDS011;10388;52.314;7.938;2023-03-26T11:33:49;6.97;;;2.93;;
20458;SDS011;10388;52.314;7.938;2023-03-26T11:36:23;3.73;;;2.23;;
20458;SDS011;10388;52.314;7.938;2023-03-26T11:39:05;10.17;;;3.27;;
20458;SDS011;10388;52.314;7.938;2023-03-26T11:41:42;8.90;;;2.97;;
20458;SDS011;10388;52.314;7.938;2023-03-26T11:46:54;13.07;;;5.20;;
20458;SDS011;10388;52.314;7.938;2023-03-26T11:49:30;11.20;;;5.87;;
20458;SDS011;10388;52.314;7.938;2023-03-26T11:52:01;7.80;;;4.00;;
20458;SDS011;10388;52.314;7.938;2023-03-26T11:54:32;7.50;;;3.17;;
20458;SDS011;10388;52.314;7.938;2023-03-26T11:57:05;8.00;;;3.43;;
20458;SDS011;10388;52.314;7.938;2023-03-26T11:59:53;6.87;;;3.43;;
20458;SDS011;10388;52.314;7.938;2023-03-26T12:02:46;9.97;;;4.00;;
20458;SDS011;10388;52.314;7.938;2023-03-26T12:10:32;8.67;;;3.40;;
20458;SDS011;10388;52.314;7.938;2023-03-26T12:13:21;7.83;;;3.70;;
20458;SDS011;10388;52.314;7.938;2023-03-26T12:15:59;10.27;;;3.23;;
20458;SDS011;10388;52.314;7.938;2023-03-26T12:18:39;8.87;;;3.10;;
20458;SDS011;10388;52.314;7.938;2023-03-26T12:21:13;11.10;;;3.67;;
20458;SDS011;10388;52.314;7.938;2023-03-26T12:23:55;12.63;;;3.50;;
20458;SDS011;10388;52.314;7.938;2023-03-26T12:26:33;12.17;;;3.97;;
20458;SDS011;10388;52.314;7.938;2023-03-26T12:29:08;11.43;;;3.63;;
20458;SDS011;10388;52.314;7.938;2023-03-26T12:31:50;10.43;;;3.80;;
20458;SDS011;10388;52.314;7.938;2023-03-26T12:34:42;12.07;;;4.37;;
20458;SDS011;10388;52.314;7.938;2023-03-26T12:43:05;10.67;;;3.97;;
20458;SDS011;10388;52.314;7.938;2023-03-26T12:46:00;10.27;;;3.20;;
20458;SDS011;10388;52.314;7.938;2023-03-26T12:48:31;7.33;;;3.80;;
20458;SDS011;10388;52.314;7.938;2023-03-26T12:51:06;14.23;;;4.70;;
20458;SDS011;10388;52.314;7.938;2023-03-26T12:56:50;13.70;;;4.20;;
20458;SDS011;10388;52.314;7.938;2023-03-26T12:59:42;11.73;;;4.03;;
20458;SDS011;10388;52.314;7.938;2023-03-26T13:02:53;9.20;;;4.03;;
20458;SDS011;10388;52.314;7.938;2023-03-26T13:06:07;13.87;;;4.30;;
20458;SDS011;10388;52.314;7.938;2023-03-26T13:09:04;11.37;;;4.40;;
20458;SDS011;10388;52.314;7.938;2023-03-26T13:14:12;10.63;;;5.73;;
20458;SDS011;10388;52.314;7.938;2023-03-26T13:17:33;23.37;;;9.73;;
20458;SDS011;10388;52.314;7.938;2023-03-26T13:25:43;17.03;;;8.00;;
20458;SDS011;10388;52.314;7.938;2023-03-26T13:28:30;23.10;;;11.80;;
20458;SDS011;10388;52.314;7.938;2023-03-26T13:31:07;22.00;;;10.37;;
20458;SDS011;10388;52.314;7.938;2023-03-26T13:34:00;26.03;;;11.50;;
20458;SDS011;10388;52.314;7.938;2023-03-26T13:39:56;15.07;;;6.47;;
20458;SDS011;10388;52.314;7.938;2023-03-26T13:42:36;18.00;;;8.57;;
20458;SDS011;10388;52.314;7.938;2023-03-26T13:45:36;19.07;;;8.07;;
20458;SDS011;10388;52.314;7.938;2023-03-26T13:48:25;22.33;;;10.17;;
20458;SDS011;10388;52.314;7.938;2023-03-26T13:51:08;15.30;;;6.93;;
20458;SDS011;10388;52.314;7.938;2023-03-26T13:53:43;21.23;;;10.43;;
20458;SDS011;10388;52.314;7.938;2023-03-26T13:56:25;8.93;;;4.57;;
20458;SDS011;10388;52.314;7.938;2023-03-26T13:59:09;8.13;;;4.13;;
20458;SDS011;10388;52.314;7.938;2023-03-26T14:01:46;10.67;;;4.63;;
20458;SDS011;10388;52.314;7.938;2023-03-26T14:04:24;10.63;;;3.93;;
20458;SDS011;10388;52.314;7.938;2023-03-26T14:07:14;10.43;;;3.17;;
20458;SDS011;10388;52.314;7.938;2023-03-26T14:10:00;6.87;;;3.53;;
20458;SDS011;10388;52.314;7.938;2023-03-26T14:15:28;9.70;;;2.60;;
20458;SDS011;10388;52.314;7.938;2023-03-26T14:24:08;7.47;;;3.40;;
20458;SDS011;10388;52.314;7.938;2023-03-26T14:26:49;6.03;;;2.70;;
20458;SDS011;10388;52.314;7.938;2023-03-26T14:29:57;4.97;;;2.23;;
20458;SDS011;10388;52.314;7.938;2023-03-26T14:32:42;8.90;;;3.53;;
20458;SDS011;10388;52.314;7.938;2023-03-26T14:35:31;12.27;;;7.30;;
20458;SDS011;10388;52.314;7.938;2023-03-26T14:38:20;8.00;;;3.37;;
20458;SDS011;10388;52.314;7.938;2023-03-26T14:41:18;7.03;;;2.47;;
20458;SDS011;10388;52.314;7.938;2023-03-26T14:52:45;6.67;;;3.20;;
20458;SDS011;10388;52.314;7.938;2023-03-26T14:55:26;7.57;;;3.60;;
20458;SDS011;10388;52.314;7.938;2023-03-26T14:58:15;5.00;;;3.00;;
20458;SDS011;10388;52.314;7.938;2023-03-26T15:01:07;4.53;;;2.67;;
20458;SDS011;10388;52.314;7.938;2023-03-26T15:12:43;9.97;;;2.80;;
20458;SDS011;10388;52.314;7.938;2023-03-26T15:18:41;9.70;;;2.77;;
20458;SDS011;10388;52.314;7.938;2023-03-26T15:30:14;7.27;;;2.23;;
20458;SDS011;10388;52.314;7.938;2023-03-26T15:39:20;10.20;;;2.70;;
20458;SDS011;10388;52.314;7.938;2023-03-26T15:48:01;6.53;;;2.27;;
20458;SDS011;10388;52.314;7.938;2023-03-26T15:53:38;6.87;;;2.30;;
20458;SDS011;10388;52.314;7.938;2023-03-26T15:56:25;4.93;;;2.30;;
20458;SDS011;10388;52.314;7.938;2023-03-26T16:04:42;18.70;;;5.70;;
20458;SDS011;10388;52.314;7.938;2023-03-26T16:10:55;6.60;;;1.90;;
20458;SDS011;10388;52.314;7.938;2023-03-26T16:13:33;12.20;;;3.40;;
20458;SDS011;10388;52.314;7.938;2023-03-26T16:18:36;6.47;;;2.30;;
20458;SDS011;10388;52.314;7.938;2023-03-26T16:21:24;5.83;;;2.00;;
20458;SDS011;10388;52.314;7.938;2023-03-26T16:26:39;9.00;;;2.10;;
20458;SDS011;10388;52.314;7.938;2023-03-26T16:29:20;3.80;;;1.87;;
20458;SDS011;10388;52.314;7.938;2023-03-26T16:34:57;6.83;;;2.07;;
20458;SDS011;10388;52.314;7.938;2023-03-26T16:51:44;6.87;;;2.00;;
20458;SDS011;10388;52.314;7.938;2023-03-26T16:54:32;5.10;;;1.80;;
20458;SDS011;10388;52.314;7.938;2023-03-26T17:08:30;13.07;;;2.53;;
20458;SDS011;10388;52.314;7.938;2023-03-26T17:14:32;8.10;;;3.00;;
20458;SDS011;10388;52.314;7.938;2023-03-26T17:20:33;6.90;;;2.27;;
20458;SDS011;10388;52.314;7.938;2023-03-26T17:23:20;6.57;;;2.67;;
20458;SDS011;10388;52.314;7.938;2023-03-26T17:31:59;9.23;;;1.80;;
20458;SDS011;10388;52.314;7.938;2023-03-26T17:34:41;7.57;;;2.63;;
20458;SDS011;10388;52.314;7.938;2023-03-26T17:37:27;7.33;;;2.57;;
20458;SDS011;10388;52.314;7.938;2023-03-26T17:42:58;5.23;;;1.70;;
20458;SDS011;10388;52.314;7.938;2023-03-26T17:45:33;5.90;;;1.83;;
20458;SDS011;10388;52.314;7.938;2023-03-26T17:48:15;7.87;;;2.23;;
20458;SDS011;10388;52.314;7.938;2023-03-26T17:50:54;7.80;;;3.47;;
20458;SDS011;10388;52.314;7.938;2023-03-26T17:53:29;8.10;;;2.03;;
20458;SDS011;10388;52.314;7.938;2023-03-26T17:56:03;14.10;;;6.73;;
20458;SDS011;10388;52.314;7.938;2023-03-26T17:58:42;7.53;;;2.83;;
20458;SDS011;10388;52.314;7.938;2023-03-26T18:01:22;10.93;;;3.73;;
20458;SDS011;10388;52.314;7.938;2023-03-26T18:03:59;8.77;;;2.90;;
20458;SDS011;10388;52.314;7.938;2023-03-26T18:13:05;15.97;;;6.23;;
20458;SDS011;10388;52.314;7.938;2023-03-26T18:18:22;10.57;;;4.73;;
20458;SDS011;10388;52.314;7.938;2023-03-26T18:20:56;13.53;;;4.40;;
20458;SDS011;10388;52.314;7.938;2023-03-26T18:26:09;7.40;;;4.10;;
20458;SDS011;10388;52.314;7.938;2023-03-26T18:28:48;6.70;;;3.03;;
20458;SDS011;10388;52.314;7.938;2023-03-26T18:31:22;10.60;;;4.90;;
20458;SDS011;10388;52.314;7.938;2023-03-26T18:33:55;11.47;;;4.50;;
20458;SDS011;10388;52.314;7.938;2023-03-26T18:36:31;10.13;;;5.00;;
20458;SDS011;10388;52.314;7.938;2023-03-26T18:39:02;11.50;;;4.33;;
20458;SDS011;10388;52.314;7.938;2023-03-26T18:41:34;18.90;;;8.90;;
20458;SDS011;10388;52.314;7.938;2023-03-26T18:44:15;22.83;;;8.53;;
20458;SDS011;10388;52.314;7.938;2023-03-26T18:46:47;10.30;;;3.73;;
20458;SDS011;10388;52.314;7.938;2023-03-26T18:49:17;7.47;;;3.20;;
20458;SDS011;10388;52.314;7.938;2023-03-26T18:51:49;10.30;;;6.37;;
20458;SDS011;10388;52.314;7.938;2023-03-26T18:54:22;6.30;;;2.60;;
20458;SDS011;10388;52.314;7.938;2023-03-26T18:56:54;9.17;;;2.50;;
20458;SDS011;10388;52.314;7.938;2023-03-26T18:59:29;6.17;;;2.17;;
20458;SDS011;10388;52.314;7.938;2023-03-26T19:02:02;6.03;;;2.13;;
20458;SDS011;10388;52.314;7.938;2023-03-26T19:04:39;7.23;;;3.27;;
20458;SDS011;10388;52.314;7.938;2023-03-26T19:07:12;6.70;;;2.50;;
20458;SDS011;10388;52.314;7.938;2023-03-26T19:09:53;6.83;;;2.87;;
20458;SDS011;10388;52.314;7.938;2023-03-26T19:12:29;7.40;;;2.23;;
20458;SDS011;10388;52.314;7.938;2023-03-26T19:15:12;6.57;;;1.63;;
20458;SDS011;10388;52.314;7.938;2023-03-26T19:17:46;5.60;;;1.80;;
20458;SDS011;10388;52.314;7.938;2023-03-26T19:20:23;6.97;;;2.47;;
20458;SDS011;10388;52.314;7.938;2023-03-26T19:22:56;7.10;;;1.70;;
20458;SDS011;10388;52.314;7.938;2023-03-26T19:25:28;8.17;;;2.03;;
20458;SDS011;10388;52.314;7.938;2023-03-26T19:28:14;8.03;;;3.00;;
20458;SDS011;10388;52.314;7.938;2023-03-26T19:31:15;6.87;;;2.10;;
20458;SDS011;10388;52.314;7.938;2023-03-26T19:33:58;5.90;;;1.70;;
20458;SDS011;10388;52.314;7.938;2023-03-26T19:36:48;11.23;;;2.13;;
20458;SDS011;10388;52.314;7.938;2023-03-26T19:39:38;6.47;;;2.63;;
20458;SDS011;10388;52.314;7.938;2023-03-26T19:42:12;5.00;;;2.00;;
20458;SDS011;10388;52.314;7.938;2023-03-26T19:44:46;9.37;;;2.00;;
20458;SDS011;10388;52.314;7.938;2023-03-26T19:47:22;5.10;;;1.60;;
20458;SDS011;10388;52.314;7.938;2023-03-26T19:49:56;7.60;;;2.23;;
20458;SDS011;10388;52.314;7.938;2023-03-26T19:52:35;7.50;;;1.60;;
20458;SDS011;10388;52.314;7.938;2023-03-26T19:57:41;7.80;;;1.80;;
20458;SDS011;10388;52.314;7.938;2023-03-26T20:00:12;7.87;;;2.20;;
20458;SDS011;10388;52.314;7.938;2023-03-26T20:02:43;6.17;;;2.10;;
20458;SDS011;10388;52.314;7.938;2023-03-26T20:05:19;5.47;;;1.90;;
20458;SDS011;10388;52.314;7.938;2023-03-26T20:07:53;3.10;;;1.73;;
20458;SDS011;10388;52.314;7.938;2023-03-26T20:10:28;7.07;;;1.87;;
20458;SDS011;10388;52.314;7.938;2023-03-26T20:12:59;5.17;;;1.93;;
20458;SDS011;10388;52.314;7.938;2023-03-26T20:15:30;6.20;;;1.73;;
20458;SDS011;10388;52.314;7.938;2023-03-26T20:18:03;8.37;;;2.33;;
20458;SDS011;10388;52.314;7.938;2023-03-26T20:20:33;6.40;;;2.10;;
20458;SDS011;10388;52.314;7.938;2023-03-26T20:23:09;5.47;;;1.50;;
20458;SDS011;10388;52.314;7.938;2023-03-26T20:25:49;6.97;;;2.13;;
20458;SDS011;10388;52.314;7.938;2023-03-26T20:28:23;3.93;;;1.73;;
20458;SDS011;10388;52.314;7.938;2023-03-26T20:30:53;6.37;;;1.90;;
20458;SDS011;10388;52.314;7.938;2023-03-26T20:33:24;7.43;;;2.03;;
20458;SDS011;10388;52.314;7.938;2023-03-26T20:35:56;4.33;;;1.70;;
20458;SDS011;10388;52.314;7.938;2023-03-26T20:38:27;7.63;;;2.17;;
20458;SDS011;10388;52.314;7.938;2023-03-26T20:40:57;6.53;;;2.63;;
20458;SDS011;10388;52.314;7.938;2023-03-26T20:43:28;6.17;;;1.63;;
20458;SDS011;10388;52.314;7.938;2023-03-26T20:45:59;4.73;;;1.80;;
20458;SDS011;10388;52.314;7.938;2023-03-26T20:48:29;9.03;;;2.20;;
20458;SDS011;10388;52.314;7.938;2023-03-26T20:51:00;6.00;;;1.70;;
20458;SDS011;10388;52.314;7.938;2023-03-26T20:53:31;7.60;;;3.13;;
20458;SDS011;10388;52.314;7.938;2023-03-26T20:56:02;5.20;;;1.73;;
20458;SDS011;10388;52.314;7.938;2023-03-26T20:58:32;8.97;;;1.77;;
20458;SDS011;10388;52.314;7.938;2023-03-26T21:01:03;6.17;;;1.73;;
20458;SDS011;10388;52.314;7.938;2023-03-26T21:03:34;4.20;;;1.90;;
20458;SDS011;10388;52.314;7.938;2023-03-26T21:06:06;5.57;;;1.80;;
20458;SDS011;10388;52.314;7.938;2023-03-26T21:08:40;5.50;;;2.00;;
20458;SDS011;10388;52.314;7.938;2023-03-26T21:14:40;8.10;;;2.07;;
20458;SDS011;10388;52.314;7.938;2023-03-26T21:17:16;7.13;;;1.87;;
20458;SDS011;10388;52.314;7.938;2023-03-26T21:19:49;7.07;;;2.27;;
20458;SDS011;10388;52.314;7.938;2023-03-26T21:22:26;4.27;;;1.80;;
20458;SDS011;10388;52.314;7.938;2023-03-26T21:30:35;6.23;;;1.97;;
20458;SDS011;10388;52.314;7.938;2023-03-26T21:33:06;6.73;;;2.13;;
20458;SDS011;10388;52.314;7.938;2023-03-26T21:35:37;7.13;;;1.97;;
20458;SDS011;10388;52.314;7.938;2023-03-26T21:38:08;6.13;;;2.30;;
20458;SDS011;10388;52.314;7.938;2023-03-26T21:40:40;5.10;;;1.70;;
20458;SDS011;10388;52.314;7.938;2023-03-26T21:43:11;7.23;;;1.67;;
20458;SDS011;10388;52.314;7.938;2023-03-26T21:45:42;5.93;;;1.87;;
20458;SDS011;10388;52.314;7.938;2023-03-26T21:48:16;5.83;;;1.90;;
20458;SDS011;10388;52.314;7.938;2023-03-26T21:50:47;7.70;;;1.80;;
20458;SDS011;10388;52.314;7.938;2023-03-26T21:53:18;7.00;;;2.50;;
20458;SDS011;10388;52.314;7.938;2023-03-26T22:09:40;10.17;;;1.90;;
20458;SDS011;10388;52.314;7.938;2023-03-26T22:12:12;4.90;;;1.93;;
20458;SDS011;10388;52.314;7.938;2023-03-26T22:14:43;4.63;;;1.87;;
20458;SDS011;10388;52.314;7.938;2023-03-26T22:17:13;4.40;;;1.60;;
20458;SDS011;10388;52.314;7.938;2023-03-26T22:19:44;5.70;;;1.37;;
20458;SDS011;10388;52.314;7.938;2023-03-26T22:22:14;7.30;;;1.87;;
20458;SDS011;10388;52.314;7.938;2023-03-26T22:24:45;5.70;;;1.90;;
20458;SDS011;10388;52.314;7.938;2023-03-26T22:27:15;4.30;;;1.40;;
20458;SDS011;10388;52.314;7.938;2023-03-26T22:29:46;9.53;;;2.17;;
20458;SDS011;10388;52.314;7.938;2023-03-26T22:32:17;5.93;;;2.00;;
20458;SDS011;10388;52.314;7.938;2023-03-26T22:34:47;8.83;;;1.80;;
20458;SDS011;10388;52.314;7.938;2023-03-26T22:37:18;7.93;;;2.00;;
20458;SDS011;10388;52.314;7.938;2023-03-26T22:39:48;3.97;;;1.63;;
20458;SDS011;10388;52.314;7.938;2023-03-26T22:42:19;6.60;;;2.07;;
20458;SDS011;10388;52.314;7.938;2023-03-26T22:44:50;4.80;;;2.23;;
20458;SDS011;10388;52.314;7.938;2023-03-26T22:47:20;9.47;;;1.90;;
20458;SDS011;10388;52.314;7.938;2023-03-26T22:49:51;6.97;;;2.20;;
20458;SDS011;10388;52.314;7.938;2023-03-26T22:52:21;4.70;;;2.13;;
20458;SDS011;10388;52.314;7.938;2023-03-26T22:54:52;2.83;;;1.70;;
20458;SDS011;10388;52.314;7.938;2023-03-26T22:57:23;6.50;;;1.90;;
20458;SDS011;10388;52.314;7.938;2023-03-26T22:59:54;7.77;;;2.47;;
20458;SDS011;10388;52.314;7.938;2023-03-26T23:02:25;3.00;;;1.73;;
20458;SDS011;10388;52.314;7.938;2023-03-26T23:04:56;6.87;;;1.87;;
20458;SDS011;10388;52.314;7.938;2023-03-26T23:07:26;7.07;;;2.10;;
20458;SDS011;10388;52.314;7.938;2023-03-26T23:09:57;6.80;;;2.37;;
20458;SDS011;10388;52.314;7.938;2023-03-26T23:12:27;5.67;;;1.90;;
20458;SDS011;10388;52.314;7.938;2023-03-26T23:14:58;4.80;;;1.80;;
20458;SDS011;10388;52.314;7.938;2023-03-26T23:17:31;12.27;;;2.70;;
20458;SDS011;10388;52.314;7.938;2023-03-26T23:20:04;5.37;;;1.83;;
20458;SDS011;10388;52.314;7.938;2023-03-26T23:22:43;5.20;;;1.97;;
20458;SDS011;10388;52.314;7.938;2023-03-26T23:25:14;4.93;;;1.90;;
20458;SDS011;10388;52.314;7.938;2023-03-26T23:27:45;12.60;;;2.87;;
20458;SDS011;10388;52.314;7.938;2023-03-26T23:30:17;7.70;;;2.17;;
20458;SDS011;10388;52.314;7.938;2023-03-26T23:32:48;5.50;;;2.30;;
20458;SDS011;10388;52.314;7.938;2023-03-26T23:35:18;3.70;;;1.93;;
20458;SDS011;10388;52.314;7.938;2023-03-26T23:37:49;5.03;;;1.97;;
20458;SDS011;10388;52.314;7.938;2023-03-26T23:40:19;9.77;;;2.57;;
20458;SDS011;10388;52.314;7.938;2023-03-26T23:42:50;8.40;;;2.80;;
20458;SDS011;10388;52.314;7.938;2023-03-26T23:45:20;12.93;;;4.00;;
20458;SDS011;10388;52.314;7.938;2023-03-26T23:47:51;10.83;;;2.63;;
20458;SDS011;10388;52.314;7.938;2023-03-26T23:50:22;5.67;;;2.00;;
20458;SDS011;10388;52.314;7.938;2023-03-26T23:52:52;14.23;;;2.30;;
20458;SDS011;10388;52.314;7.938;2023-03-26T23:55:23;7.00;;;1.87;;
20458;SDS011;10388;52.314;7.938;2023-03-26T23:57:57;5.00;;;2.23;;
